createdAt,value
2017-05-03T00:02:23.528Z,8.00
2017-05-03T00:04:51.190Z,8.10
2017-05-03T00:07:18.808Z,8.20
2017-05-03T00:09:47.116Z,8.20
2017-05-03T00:12:14.696Z,8.20
2017-05-03T00:14:43.080Z,8.10
2017-05-03T00:19:39.306Z,8.20
2017-05-03T00:22:07.643Z,8.10
2017-05-03T00:24:35.184Z,8.10
2017-05-03T00:27:02.772Z,8.10
2017-05-03T00:29:30.389Z,8.20
2017-05-03T00:31:57.912Z,8.20
2017-05-03T00:34:25.468Z,8.10
2017-05-03T00:36:53.067Z,8.20
2017-05-03T00:39:20.625Z,8.20
2017-05-03T00:41:48.240Z,8.20
2017-05-03T00:44:15.812Z,8.30
2017-05-03T00:46:43.376Z,8.20
2017-05-03T00:49:11.260Z,8.20
2017-05-03T00:51:38.848Z,8.20
2017-05-03T00:54:06.432Z,8.30
2017-05-03T00:56:34.004Z,8.20
2017-05-03T00:59:01.629Z,8.30
2017-05-03T01:01:29.204Z,8.30
2017-05-03T01:03:56.769Z,8.30
2017-05-03T01:06:24.389Z,8.30
2017-05-03T01:08:51.984Z,8.20
2017-05-03T01:11:20.769Z,8.20
2017-05-03T01:13:48.400Z,8.30
2017-05-03T01:16:15.916Z,8.30
2017-05-03T01:18:43.500Z,8.30
2017-05-03T01:21:11.812Z,8.30
2017-05-03T01:23:39.424Z,8.30
2017-05-03T01:26:07.438Z,8.30
2017-05-03T01:28:34.309Z,8.30
2017-05-03T01:31:01.957Z,8.30
2017-05-03T01:33:29.620Z,8.30
2017-05-03T01:35:57.287Z,8.30
2017-05-03T01:38:24.906Z,8.30
2017-05-03T01:40:53.293Z,8.20
2017-05-03T01:43:20.897Z,8.20
2017-05-03T01:45:48.539Z,8.20
2017-05-03T01:48:16.154Z,8.30
2017-05-03T01:50:43.756Z,8.20
2017-05-03T01:53:11.304Z,8.20
2017-05-03T01:55:38.916Z,8.20
2017-05-03T01:58:05.819Z,8.20
2017-05-03T02:00:33.432Z,8.20
2017-05-03T02:03:01.056Z,8.20
2017-05-03T02:05:28.652Z,8.20
2017-05-03T02:07:56.212Z,8.20
2017-05-03T02:10:24.560Z,8.20
2017-05-03T02:12:52.153Z,8.20
2017-05-03T02:15:19.800Z,8.20
2017-05-03T02:17:48.161Z,8.20
2017-05-03T02:20:16.508Z,8.20
2017-05-03T02:22:44.083Z,8.20
2017-05-03T02:25:11.739Z,8.10
2017-05-03T02:27:39.333Z,8.00
2017-05-03T02:30:06.920Z,8.00
2017-05-03T02:32:34.588Z,8.10
2017-05-03T02:35:02.152Z,8.10
2017-05-03T02:37:29.787Z,8.20
2017-05-03T02:39:57.989Z,8.00
2017-05-03T02:42:24.842Z,8.00
2017-05-03T02:44:52.420Z,8.20
2017-05-03T02:47:20.008Z,8.20
2017-05-03T02:49:46.865Z,8.20
2017-05-03T02:52:14.492Z,8.20
2017-05-03T02:54:42.804Z,8.00
2017-05-03T02:57:10.456Z,8.10
2017-05-03T02:59:38.043Z,8.10
2017-05-03T03:02:05.700Z,8.20
2017-05-03T03:04:33.253Z,8.10
2017-05-03T03:07:00.865Z,8.10
2017-05-03T03:09:29.432Z,8.10
2017-05-03T03:11:57.616Z,8.10
2017-05-03T03:14:25.191Z,8.10
2017-05-03T03:16:52.833Z,8.00
2017-05-03T03:19:20.443Z,8.10
2017-05-03T03:21:48.016Z,8.10
2017-05-03T03:24:14.887Z,8.10
2017-05-03T03:26:42.476Z,8.00
2017-05-03T03:29:10.132Z,8.00
2017-05-03T03:31:37.706Z,8.00
2017-05-03T03:34:05.347Z,8.00
2017-05-03T03:36:32.937Z,8.00
2017-05-03T03:39:00.553Z,8.00
2017-05-03T03:41:29.075Z,8.00
2017-05-03T03:43:56.676Z,8.10
2017-05-03T03:46:24.332Z,8.10
2017-05-03T03:48:51.948Z,8.20
2017-05-03T03:51:20.306Z,8.00
2017-05-03T03:53:48.226Z,8.00
2017-05-03T03:56:15.827Z,8.00
2017-05-03T03:58:43.409Z,8.00
2017-05-03T04:01:11.040Z,8.00
2017-05-03T04:03:38.712Z,8.00
2017-05-03T04:06:06.345Z,8.00
2017-05-03T04:08:33.958Z,8.10
2017-05-03T04:11:01.508Z,8.10
2017-05-03T04:13:29.096Z,8.10
2017-05-03T04:15:56.728Z,8.10
2017-05-03T04:18:24.324Z,8.00
2017-05-03T04:20:51.876Z,8.00
2017-05-03T04:23:19.464Z,7.90
2017-05-03T04:25:47.080Z,7.90
2017-05-03T04:28:14.652Z,8.00
2017-05-03T04:30:42.238Z,8.00
2017-05-03T04:33:09.829Z,8.10
2017-05-03T04:35:37.456Z,8.10
2017-05-03T04:38:05.748Z,8.20
2017-05-03T04:40:33.316Z,8.20
2017-05-03T04:43:00.934Z,8.30
2017-05-03T04:45:29.388Z,8.30
2017-05-03T04:47:56.971Z,8.30
2017-05-03T04:50:24.604Z,8.30
2017-05-03T04:52:52.200Z,8.20
2017-05-03T04:55:20.529Z,8.30
2017-05-03T04:57:48.108Z,8.40
2017-05-03T05:00:16.476Z,8.50
2017-05-03T05:02:44.064Z,8.50
2017-05-03T05:05:11.692Z,8.50
2017-05-03T05:07:39.301Z,8.50
2017-05-03T05:10:06.896Z,8.50
2017-05-03T05:12:34.479Z,8.50
2017-05-03T05:15:02.105Z,8.60
2017-05-03T05:17:29.704Z,8.60
2017-05-03T05:19:57.318Z,8.60
2017-05-03T05:22:25.690Z,8.60
2017-05-03T05:24:54.046Z,8.60
2017-05-03T05:27:22.364Z,8.60
2017-05-03T05:29:50.110Z,8.70
2017-05-03T05:32:17.747Z,8.70
2017-05-03T05:34:45.390Z,8.80
2017-05-03T05:37:12.992Z,8.80
2017-05-03T05:39:40.621Z,8.80
2017-05-03T05:42:08.152Z,8.80
2017-05-03T05:44:35.718Z,8.80
2017-05-03T05:47:03.305Z,8.90
2017-05-03T05:49:30.864Z,8.90
2017-05-03T05:51:59.085Z,8.90
2017-05-03T05:54:26.741Z,8.90
2017-05-03T05:56:54.322Z,8.80
2017-05-03T05:59:21.908Z,8.80
2017-05-03T06:01:50.196Z,8.90
2017-05-03T06:04:17.736Z,8.80
2017-05-03T06:06:45.452Z,8.80
2017-05-03T06:09:13.031Z,8.80
2017-05-03T06:11:40.640Z,8.80
2017-05-03T06:14:09.004Z,8.70
2017-05-03T06:16:37.358Z,8.70
2017-05-03T06:19:04.905Z,8.60
2017-05-03T06:21:31.772Z,8.60
2017-05-03T06:23:59.408Z,8.60
2017-05-03T06:26:27.002Z,8.60
2017-05-03T06:28:54.679Z,8.70
2017-05-03T06:31:22.999Z,8.70
2017-05-03T06:33:50.596Z,8.90
2017-05-03T06:36:18.236Z,8.90
2017-05-03T06:38:46.617Z,9.00
2017-05-03T06:41:14.196Z,9.10
2017-05-03T06:43:41.847Z,9.20
2017-05-03T06:46:09.424Z,9.30
2017-05-03T06:48:37.007Z,9.50
2017-05-03T06:51:04.628Z,9.60
2017-05-03T06:53:32.223Z,9.70
2017-05-03T06:55:59.849Z,9.70
2017-05-03T06:58:27.460Z,9.50
2017-05-03T07:00:55.736Z,9.60
2017-05-03T07:03:23.400Z,9.60
2017-05-03T07:05:51.019Z,9.50
2017-05-03T07:08:18.615Z,9.50
2017-05-03T07:10:46.186Z,9.50
2017-05-03T07:13:13.058Z,9.40
2017-05-03T07:15:40.754Z,9.30
2017-05-03T07:18:09.128Z,9.30
2017-05-03T07:20:37.488Z,9.20
2017-05-03T07:23:05.134Z,9.50
2017-05-03T07:25:33.524Z,9.60
2017-05-03T07:28:01.200Z,9.70
2017-05-03T07:30:29.616Z,9.70
2017-05-03T07:32:58.362Z,9.70
2017-05-03T07:35:26.487Z,9.70
2017-05-03T07:37:54.160Z,9.70
2017-05-03T07:40:22.559Z,9.70
2017-05-03T07:42:50.328Z,9.80
2017-05-03T07:45:17.957Z,9.90
2017-05-03T07:47:45.571Z,10.10
2017-05-03T07:50:13.352Z,10.10
2017-05-03T07:52:40.940Z,10.00
2017-05-03T07:55:08.552Z,10.20
2017-05-03T07:57:36.192Z,10.40
2017-05-03T08:00:03.783Z,10.50
2017-05-03T08:02:31.343Z,10.40
2017-05-03T08:05:00.022Z,10.20
2017-05-03T08:07:28.318Z,10.20
2017-05-03T08:09:55.918Z,10.30
2017-05-03T08:12:23.567Z,10.40
2017-05-03T08:14:51.220Z,10.50
2017-05-03T08:17:19.588Z,10.50
2017-05-03T08:19:47.222Z,10.30
2017-05-03T08:22:15.547Z,10.40
2017-05-03T08:24:43.123Z,10.50
2017-05-03T08:27:10.793Z,10.60
2017-05-03T08:29:38.368Z,10.60
2017-05-03T08:32:06.131Z,10.70
2017-05-03T08:34:33.737Z,10.70
2017-05-03T08:37:01.376Z,10.70
2017-05-03T08:39:29.842Z,10.80
2017-05-03T08:41:58.121Z,10.70
2017-05-03T08:44:25.736Z,10.80
2017-05-03T08:46:53.468Z,11.00
2017-05-03T08:49:21.101Z,11.30
2017-05-03T08:51:48.701Z,11.10
2017-05-03T08:54:16.301Z,11.30
2017-05-03T08:56:43.909Z,11.30
2017-05-03T08:59:11.536Z,11.30
2017-05-03T09:01:39.164Z,11.10
2017-05-03T09:04:06.840Z,11.10
2017-05-03T09:06:34.444Z,11.20
2017-05-03T09:09:02.050Z,11.30
2017-05-03T09:11:29.647Z,11.40
2017-05-03T09:13:57.268Z,11.60
2017-05-03T09:16:25.581Z,11.70
2017-05-03T09:18:53.184Z,12.00
2017-05-03T09:21:20.803Z,12.20
2017-05-03T09:23:48.396Z,12.10
2017-05-03T09:26:15.940Z,12.30
2017-05-03T09:28:43.415Z,12.40
2017-05-03T09:31:10.846Z,12.50
2017-05-03T09:33:38.283Z,12.40
2017-05-03T09:36:05.704Z,12.40
2017-05-03T09:38:33.159Z,12.40
2017-05-03T09:41:00.622Z,12.40
2017-05-03T09:43:28.570Z,12.60
2017-05-03T09:45:55.991Z,12.60
2017-05-03T09:48:23.446Z,12.60
2017-05-03T09:50:50.867Z,12.60
2017-05-03T09:53:18.300Z,12.60
2017-05-03T09:55:45.755Z,12.60
2017-05-03T09:58:13.199Z,12.60
2017-05-03T10:00:40.629Z,12.70
2017-05-03T10:03:08.082Z,12.80
2017-05-03T10:05:35.507Z,12.80
2017-05-03T10:08:02.931Z,12.80
2017-05-03T10:10:30.379Z,12.60
2017-05-03T10:12:58.565Z,12.70
2017-05-03T10:15:25.999Z,12.60
2017-05-03T10:17:53.447Z,12.80
2017-05-03T10:20:20.875Z,12.90
2017-05-03T10:22:48.332Z,13.10
2017-05-03T10:25:15.843Z,13.00
2017-05-03T10:27:43.414Z,12.90
2017-05-03T10:30:10.819Z,12.70
2017-05-03T10:32:38.379Z,12.60
2017-05-03T10:35:05.799Z,12.70
2017-05-03T10:37:33.939Z,12.80
2017-05-03T10:40:01.371Z,12.90
2017-05-03T10:42:29.630Z,12.90
2017-05-03T10:44:57.058Z,12.90
2017-05-03T10:47:24.512Z,12.90
2017-05-03T10:49:51.915Z,12.90
2017-05-03T10:52:19.375Z,12.90
2017-05-03T10:54:46.818Z,12.90
2017-05-03T10:57:14.246Z,12.90
2017-05-03T10:59:41.659Z,12.70
2017-05-03T11:02:09.095Z,12.60
2017-05-03T11:04:36.522Z,12.50
2017-05-03T11:07:03.950Z,12.30
2017-05-03T11:09:32.163Z,12.10
2017-05-03T11:11:59.587Z,12.10
2017-05-03T11:14:27.027Z,12.20
2017-05-03T11:16:54.506Z,12.10
2017-05-03T11:19:21.971Z,12.10
2017-05-03T11:21:50.151Z,12.00
2017-05-03T11:24:17.605Z,12.00
2017-05-03T11:26:45.047Z,12.10
2017-05-03T11:29:12.474Z,12.10
2017-05-03T11:31:39.931Z,12.10
2017-05-03T11:34:07.358Z,12.10
2017-05-03T11:36:34.762Z,12.10
2017-05-03T11:39:02.211Z,12.00
2017-05-03T11:41:30.378Z,12.00
2017-05-03T11:43:59.518Z,11.90
2017-05-03T11:46:26.999Z,11.70
2017-05-03T11:48:55.167Z,11.70
2017-05-03T11:51:22.590Z,11.60
2017-05-03T11:53:50.041Z,11.60
2017-05-03T11:56:18.215Z,11.60
2017-05-03T11:58:46.393Z,11.50
2017-05-03T12:01:13.858Z,11.50
2017-05-03T12:03:41.302Z,11.60
2017-05-03T12:06:08.738Z,11.50
2017-05-03T12:08:36.183Z,11.50
2017-05-03T12:11:03.618Z,11.60
2017-05-03T12:13:31.053Z,11.60
2017-05-03T12:15:58.883Z,11.60
2017-05-03T12:18:26.311Z,11.60
2017-05-03T12:20:53.734Z,11.50
2017-05-03T12:23:21.934Z,11.50
2017-05-03T12:25:49.374Z,11.60
2017-05-03T12:28:16.812Z,11.60
2017-05-03T12:30:44.287Z,11.60
2017-05-03T12:33:11.714Z,11.60
2017-05-03T12:35:39.171Z,11.70
2017-05-03T12:38:05.859Z,11.60
2017-05-03T12:40:33.283Z,11.80
2017-05-03T12:43:00.747Z,11.80
2017-05-03T12:45:28.699Z,11.90
2017-05-03T12:47:56.159Z,11.90
2017-05-03T12:50:23.603Z,11.90
2017-05-03T12:52:51.079Z,11.90
2017-05-03T12:55:19.263Z,12.00
2017-05-03T12:57:46.702Z,12.00
2017-05-03T13:00:14.159Z,12.00
2017-05-03T13:02:41.578Z,12.00
2017-05-03T13:05:09.015Z,12.00
2017-05-03T13:07:36.482Z,12.00
2017-05-03T13:10:03.927Z,12.00
2017-05-03T13:12:31.386Z,12.00
2017-05-03T13:14:59.743Z,12.10
2017-05-03T13:17:27.178Z,12.20
2017-05-03T13:19:54.619Z,12.20
2017-05-03T13:22:22.054Z,12.20
2017-05-03T13:24:49.491Z,12.30
2017-05-03T13:27:16.951Z,12.40
2017-05-03T13:29:44.406Z,12.40
2017-05-03T13:32:11.846Z,12.40
2017-05-03T13:34:39.286Z,12.60
2017-05-03T13:37:06.725Z,12.60
2017-05-03T13:39:34.154Z,12.70
2017-05-03T13:42:01.624Z,12.70
2017-05-03T13:44:29.863Z,12.60
2017-05-03T13:46:57.283Z,12.60
2017-05-03T13:49:24.739Z,12.50
2017-05-03T13:51:52.191Z,12.60
2017-05-03T13:54:19.630Z,12.50
2017-05-03T13:56:47.072Z,12.60
2017-05-03T13:59:14.497Z,12.60
2017-05-03T14:01:41.898Z,12.70
2017-05-03T14:04:09.330Z,12.70
2017-05-03T14:06:36.763Z,12.80
2017-05-03T14:09:04.220Z,12.70
2017-05-03T14:11:31.679Z,12.60
2017-05-03T14:13:59.307Z,12.60
2017-05-03T14:16:26.747Z,12.50
2017-05-03T14:18:54.227Z,12.50
2017-05-03T14:21:21.664Z,12.40
2017-05-03T14:23:49.098Z,12.40
2017-05-03T14:26:16.541Z,12.40
2017-05-03T14:28:43.967Z,12.50
2017-05-03T14:31:11.523Z,12.40
2017-05-03T14:33:38.996Z,12.40
2017-05-03T14:36:06.431Z,12.40
2017-05-03T14:38:33.870Z,12.40
2017-05-03T14:41:01.323Z,12.40
2017-05-03T14:43:29.703Z,12.40
2017-05-03T14:45:58.586Z,12.40
2017-05-03T14:48:26.039Z,12.40
2017-05-03T14:50:53.471Z,12.40
2017-05-03T14:53:20.914Z,12.40
2017-05-03T14:55:48.378Z,12.40
2017-05-03T14:58:15.818Z,12.50
2017-05-03T15:00:43.247Z,12.40
2017-05-03T15:03:10.819Z,12.40
2017-05-03T15:05:38.228Z,12.30
2017-05-03T15:08:05.664Z,12.20
2017-05-03T15:10:33.122Z,12.20
2017-05-03T15:13:00.565Z,12.20
2017-05-03T15:15:28.831Z,12.20
2017-05-03T15:17:56.283Z,12.20
2017-05-03T15:20:23.756Z,12.10
2017-05-03T15:22:51.947Z,12.10
2017-05-03T15:25:19.406Z,12.20
2017-05-03T15:27:46.838Z,12.20
2017-05-03T15:30:14.266Z,12.10
2017-05-03T15:32:41.734Z,12.20
2017-05-03T15:35:09.151Z,12.20
2017-05-03T15:37:36.602Z,12.10
2017-05-03T15:40:04.087Z,12.00
2017-05-03T15:42:31.527Z,12.00
2017-05-03T15:44:59.577Z,12.00
2017-05-03T15:47:28.454Z,11.90
2017-05-03T15:49:55.885Z,11.90
2017-05-03T15:52:23.339Z,12.00
2017-05-03T15:54:50.782Z,12.00
2017-05-03T15:57:18.203Z,12.00
2017-05-03T15:59:45.663Z,12.00
2017-05-03T16:02:13.127Z,12.00
2017-05-03T16:04:41.291Z,12.00
2017-05-03T16:07:08.722Z,12.10
2017-05-03T16:09:36.167Z,12.00
2017-05-03T16:12:03.603Z,12.00
2017-05-03T16:14:31.031Z,12.00
2017-05-03T16:16:59.367Z,12.00
2017-05-03T16:19:26.803Z,12.00
2017-05-03T16:21:54.862Z,12.00
2017-05-03T16:24:22.291Z,12.00
2017-05-03T16:26:49.734Z,11.90
2017-05-03T16:29:17.155Z,11.80
2017-05-03T16:31:44.606Z,11.80
2017-05-03T16:34:12.035Z,11.80
2017-05-03T16:36:39.475Z,11.70
2017-05-03T16:39:06.932Z,11.70
2017-05-03T16:41:34.371Z,11.60
2017-05-03T16:44:01.831Z,11.60
2017-05-03T16:46:29.302Z,11.60
2017-05-03T16:48:56.716Z,11.60
2017-05-03T16:51:24.141Z,11.70
2017-05-03T16:53:51.607Z,11.70
2017-05-03T16:56:19.060Z,11.70
2017-05-03T16:58:46.510Z,11.70
2017-05-03T17:01:14.821Z,11.60
2017-05-03T17:03:42.312Z,11.60
2017-05-03T17:06:09.772Z,11.60
2017-05-03T17:08:37.263Z,11.70
2017-05-03T17:11:04.728Z,11.70
2017-05-03T17:13:33.105Z,11.70
2017-05-03T17:16:01.001Z,11.70
2017-05-03T17:18:29.068Z,11.70
2017-05-03T17:20:56.740Z,11.70
2017-05-03T17:23:25.091Z,11.70
2017-05-03T17:25:52.710Z,11.70
2017-05-03T17:28:20.333Z,11.60
2017-05-03T17:30:47.979Z,11.60
2017-05-03T17:33:15.604Z,11.60
2017-05-03T17:35:43.170Z,11.60
2017-05-03T17:38:10.948Z,11.60
2017-05-03T17:40:38.931Z,11.60
2017-05-03T17:43:06.931Z,11.60
2017-05-03T17:45:34.659Z,11.50
2017-05-03T17:48:02.589Z,11.50
2017-05-03T17:50:30.367Z,11.50
2017-05-03T17:52:58.515Z,11.50
2017-05-03T17:55:26.369Z,11.40
2017-05-03T17:57:54.888Z,11.40
2017-05-03T18:00:23.469Z,11.30
2017-05-03T18:02:51.333Z,11.30
2017-05-03T18:05:19.385Z,11.30
2017-05-03T18:07:47.412Z,11.30
2017-05-03T18:10:15.929Z,11.20
2017-05-03T18:12:43.820Z,11.30
2017-05-03T18:15:11.834Z,11.30
2017-05-03T18:17:39.426Z,11.30
2017-05-03T18:20:08.198Z,11.20
2017-05-03T18:22:36.559Z,11.20
2017-05-03T18:25:05.737Z,11.10
2017-05-03T18:27:34.424Z,11.10
2017-05-03T18:30:03.211Z,11.00
2017-05-03T18:32:31.830Z,10.90
2017-05-03T18:35:01.227Z,10.90
2017-05-03T18:37:31.293Z,10.90
2017-05-03T18:40:01.620Z,11.00
2017-05-03T18:42:31.730Z,10.90
2017-05-03T18:45:01.424Z,10.90
2017-05-03T18:47:31.835Z,11.00
2017-05-03T18:50:01.356Z,11.00
2017-05-03T18:52:31.601Z,11.00
2017-05-03T18:55:01.786Z,11.00
2017-05-03T18:57:31.183Z,10.90
2017-05-03T19:00:01.472Z,10.90
2017-05-03T19:02:32.056Z,10.90
2017-05-03T19:05:01.775Z,10.90
2017-05-03T19:07:32.145Z,10.90
2017-05-03T19:10:01.817Z,10.90
2017-05-03T19:12:31.324Z,10.90
2017-05-03T19:15:01.804Z,10.90
2017-05-03T19:17:31.214Z,10.90
2017-05-03T19:20:01.569Z,10.90
2017-05-03T19:22:31.857Z,10.80
2017-05-03T19:25:01.578Z,10.80
2017-05-03T19:27:32.231Z,10.80
2017-05-03T19:30:01.831Z,10.80
2017-05-03T19:32:31.285Z,10.80
2017-05-03T19:35:01.658Z,10.80
2017-05-03T19:37:31.900Z,10.70
2017-05-03T19:40:01.449Z,10.80
2017-05-03T19:42:31.964Z,10.70
2017-05-03T19:45:01.642Z,10.70
2017-05-03T19:47:31.341Z,10.70
2017-05-03T19:50:01.899Z,10.80
2017-05-03T19:52:31.348Z,10.80
2017-05-03T19:55:01.777Z,10.80
2017-05-03T19:57:31.317Z,10.80
2017-05-03T20:00:01.761Z,10.70
2017-05-03T20:02:31.277Z,10.60
2017-05-03T20:05:01.817Z,10.60
2017-05-03T20:07:31.321Z,10.60
2017-05-03T20:10:01.944Z,10.70
2017-05-03T20:12:31.469Z,10.60
2017-05-03T20:15:01.528Z,10.60
2017-05-03T20:17:31.893Z,10.60
2017-05-03T20:20:01.439Z,10.60
2017-05-03T20:22:31.755Z,10.60
2017-05-03T20:25:01.553Z,10.60
2017-05-03T20:27:32.093Z,10.60
2017-05-03T20:30:01.638Z,10.60
2017-05-03T20:32:32.065Z,10.50
2017-05-03T20:35:01.339Z,10.60
2017-05-03T20:37:31.553Z,10.60
2017-05-03T20:40:00.895Z,10.60
2017-05-03T20:42:30.384Z,10.70
2017-05-03T20:44:59.514Z,10.60
2017-05-03T20:47:28.059Z,10.60
2017-05-03T20:49:56.093Z,10.60
2017-05-03T20:52:23.919Z,10.60
2017-05-03T20:54:52.339Z,10.50
2017-05-03T20:57:19.982Z,10.50
2017-05-03T20:59:47.701Z,10.50
2017-05-03T21:02:15.278Z,10.50
2017-05-03T21:04:42.871Z,10.50
2017-05-03T21:07:10.588Z,10.60
2017-05-03T21:09:38.206Z,10.60
2017-05-03T21:12:05.817Z,10.60
2017-05-03T21:14:33.464Z,10.70
2017-05-03T21:17:01.099Z,10.60
2017-05-03T21:19:28.958Z,10.60
2017-05-03T21:21:56.540Z,10.60
2017-05-03T21:24:24.137Z,10.70
2017-05-03T21:26:51.771Z,10.70
2017-05-03T21:29:20.191Z,10.60
2017-05-03T21:31:47.814Z,10.50
2017-05-03T21:34:15.375Z,10.50
2017-05-03T21:36:43.047Z,10.50
2017-05-03T21:39:10.711Z,10.40
2017-05-03T21:41:39.076Z,10.50
2017-05-03T21:44:07.467Z,10.40
2017-05-03T21:46:35.016Z,10.40
2017-05-03T21:49:02.599Z,10.40
2017-05-03T21:51:30.268Z,10.40
2017-05-03T21:53:58.586Z,10.40
2017-05-03T21:56:26.200Z,10.40
2017-05-03T21:58:53.836Z,10.40
2017-05-03T22:01:21.362Z,10.40
2017-05-03T22:03:48.953Z,10.40
2017-05-03T22:06:16.620Z,10.40
2017-05-03T22:08:44.256Z,10.40
2017-05-03T22:11:11.957Z,10.40
2017-05-03T22:13:39.605Z,10.40
2017-05-03T22:16:07.233Z,10.40
2017-05-03T22:18:34.794Z,10.30
2017-05-03T22:21:01.800Z,10.30
2017-05-03T22:23:29.406Z,10.30
2017-05-03T22:25:57.000Z,10.30
2017-05-03T22:28:25.341Z,10.30
2017-05-03T22:30:52.905Z,10.40
2017-05-03T22:33:20.543Z,10.30
2017-05-03T22:35:48.183Z,10.40
2017-05-03T22:38:15.784Z,10.40
2017-05-03T22:40:43.533Z,10.40
2017-05-03T22:43:11.623Z,10.30
2017-05-03T22:45:39.293Z,10.30
2017-05-03T22:48:06.855Z,10.30
2017-05-03T22:50:34.515Z,10.30
2017-05-03T22:53:02.097Z,10.40
2017-05-03T22:55:29.708Z,10.40
2017-05-03T22:57:57.364Z,10.40
2017-05-03T23:00:25.000Z,10.40
2017-05-03T23:02:52.608Z,10.40
2017-05-03T23:05:20.940Z,10.30
2017-05-03T23:07:48.637Z,10.40
2017-05-03T23:10:16.257Z,10.40
2017-05-03T23:12:44.032Z,10.30
2017-05-03T23:15:11.655Z,10.40
2017-05-03T23:17:40.001Z,10.40
2017-05-03T23:20:08.699Z,10.40
2017-05-03T23:22:36.332Z,10.40
2017-05-03T23:25:03.892Z,10.40
2017-05-03T23:27:31.509Z,10.30
2017-05-03T23:29:59.136Z,10.30
2017-05-03T23:32:26.740Z,10.30
2017-05-03T23:34:54.328Z,10.30
2017-05-03T23:37:22.064Z,10.30
2017-05-03T23:39:49.666Z,10.30
2017-05-03T23:42:17.312Z,10.30
2017-05-03T23:44:45.572Z,10.30
2017-05-03T23:47:13.209Z,10.30
2017-05-03T23:49:40.876Z,10.30
2017-05-03T23:52:08.528Z,10.30
2017-05-03T23:54:36.076Z,10.30
2017-05-03T23:57:03.706Z,10.30
2017-05-03T23:59:31.352Z,10.30
